createdAt,value
2018-09-11T00:00:35.100Z,5.45
2018-09-11T00:03:04.124Z,4.83
2018-09-11T00:05:33.878Z,4.45
2018-09-11T00:08:03.520Z,3.42
2018-09-11T00:10:32.671Z,5.72
2018-09-11T00:13:01.816Z,5.22
2018-09-11T00:15:30.935Z,5.87
2018-09-11T00:17:59.993Z,5.12
2018-09-11T00:20:28.979Z,5.25
2018-09-11T00:22:57.969Z,5.50
2018-09-11T00:25:26.961Z,5.50
2018-09-11T00:27:55.935Z,5.05
2018-09-11T00:30:25.054Z,5.35
2018-09-11T00:32:54.055Z,3.87
2018-09-11T00:35:23.164Z,4.75
2018-09-11T00:37:52.117Z,5.37
2018-09-11T00:40:21.082Z,3.77
2018-09-11T00:42:50.107Z,4.08
2018-09-11T00:45:19.142Z,7.87
2018-09-11T00:47:48.131Z,3.83
2018-09-11T00:50:17.142Z,5.00
2018-09-11T00:52:46.226Z,2.62
2018-09-11T00:55:15.193Z,6.37
2018-09-11T00:57:44.366Z,3.70
2018-09-11T01:00:13.349Z,3.27
2018-09-11T01:02:42.936Z,4.00
2018-09-11T01:05:11.955Z,3.12
2018-09-11T01:07:41.493Z,4.55
2018-09-11T01:10:10.994Z,7.97
2018-09-11T01:12:42.931Z,5.53
2018-09-11T01:15:11.898Z,5.90
2018-09-11T01:17:40.923Z,7.35
2018-09-11T01:20:10.236Z,3.65
2018-09-11T01:22:39.487Z,4.00
2018-09-11T01:25:08.668Z,4.70
2018-09-11T01:27:37.788Z,5.17
2018-09-11T01:30:06.995Z,3.70
2018-09-11T01:32:36.067Z,5.97
2018-09-11T01:35:05.076Z,4.90
2018-09-11T01:37:34.239Z,5.08
2018-09-11T01:40:03.189Z,3.92
2018-09-11T01:42:32.309Z,3.27
2018-09-11T01:45:01.517Z,3.65
2018-09-11T01:47:30.566Z,4.72
2018-09-11T01:49:59.692Z,4.03
2018-09-11T01:52:28.708Z,8.55
2018-09-11T01:54:57.860Z,4.35
2018-09-11T01:57:26.934Z,7.72
2018-09-11T01:59:56.082Z,3.25
2018-09-11T02:02:25.101Z,5.10
2018-09-11T02:04:54.666Z,5.50
2018-09-11T02:07:23.683Z,6.92
2018-09-11T02:09:52.592Z,6.67
2018-09-11T02:12:21.612Z,3.72
2018-09-11T02:14:50.578Z,2.25
2018-09-11T02:17:19.585Z,7.00
2018-09-11T02:19:48.611Z,5.72
2018-09-11T02:22:17.561Z,7.28
2018-09-11T02:24:46.590Z,4.80
2018-09-11T02:27:15.549Z,3.95
2018-09-11T02:29:44.508Z,5.35
2018-09-11T02:32:13.533Z,3.92
2018-09-11T02:34:42.631Z,6.03
2018-09-11T02:37:11.774Z,4.80
2018-09-11T02:39:40.714Z,3.65
2018-09-11T02:42:09.693Z,5.28
2018-09-11T02:44:38.706Z,2.47
2018-09-11T02:47:07.854Z,2.67
2018-09-11T02:49:37.002Z,3.20
2018-09-11T02:52:06.358Z,3.87
2018-09-11T02:54:35.450Z,6.70
2018-09-11T02:57:04.747Z,8.00
2018-09-11T02:59:33.878Z,3.52
2018-09-11T03:02:02.911Z,3.42
2018-09-11T03:04:32.011Z,7.10
2018-09-11T03:07:01.143Z,3.27
2018-09-11T03:09:30.273Z,2.83
2018-09-11T03:11:59.547Z,3.27
2018-09-11T03:14:28.534Z,3.92
2018-09-11T03:16:57.573Z,4.83
2018-09-11T03:19:26.710Z,2.90
2018-09-11T03:21:55.760Z,4.72
2018-09-11T03:24:24.701Z,3.37
2018-09-11T03:26:53.670Z,3.47
2018-09-11T03:29:22.640Z,4.40
2018-09-11T03:31:51.784Z,3.72
2018-09-11T03:34:20.855Z,4.22
2018-09-11T03:36:50.099Z,3.87
2018-09-11T03:39:19.202Z,4.20
2018-09-11T03:41:48.165Z,2.30
2018-09-11T03:44:17.166Z,5.15
2018-09-11T03:46:46.099Z,2.45
2018-09-11T03:49:15.174Z,2.67
2018-09-11T03:51:44.184Z,4.90
2018-09-11T03:54:13.150Z,3.10
2018-09-11T03:56:42.155Z,2.87
2018-09-11T03:59:11.274Z,2.75
2018-09-11T04:01:40.251Z,3.60
2018-09-11T04:04:09.245Z,4.97
2018-09-11T04:06:38.255Z,2.75
2018-09-11T04:09:09.965Z,1.87
2018-09-11T04:11:39.015Z,2.50
2018-09-11T04:14:07.968Z,4.33
2018-09-11T04:16:37.162Z,3.83
2018-09-11T04:19:06.171Z,2.02
2018-09-11T04:21:35.152Z,3.08
2018-09-11T04:24:04.248Z,3.27
2018-09-11T04:26:33.214Z,5.80
2018-09-11T04:29:02.351Z,5.45
2018-09-11T04:31:31.301Z,2.98
2018-09-11T04:34:00.294Z,5.50
2018-09-11T04:36:29.379Z,4.05
2018-09-11T04:38:58.264Z,3.65
2018-09-11T04:41:27.235Z,4.97
2018-09-11T04:43:56.193Z,5.45
2018-09-11T04:46:25.166Z,2.45
2018-09-11T04:48:54.148Z,5.37
2018-09-11T04:51:23.148Z,4.78
2018-09-11T04:53:52.091Z,2.25
2018-09-11T04:56:21.064Z,5.20
2018-09-11T04:58:50.425Z,4.40
2018-09-11T05:01:19.379Z,2.05
2018-09-11T05:03:48.461Z,3.72
2018-09-11T05:06:17.451Z,7.22
2018-09-11T05:08:46.400Z,4.40
2018-09-11T05:11:15.378Z,5.05
2018-09-11T05:13:44.413Z,1.50
2018-09-11T05:16:13.433Z,2.45
2018-09-11T05:18:42.402Z,4.58
2018-09-11T05:21:11.563Z,3.27
2018-09-11T05:23:40.487Z,1.22
2018-09-11T05:26:09.491Z,4.17
2018-09-11T05:28:38.451Z,4.47
2018-09-11T05:31:07.440Z,6.50
2018-09-11T05:33:36.491Z,1.27
2018-09-11T05:36:05.474Z,3.60
2018-09-11T05:38:34.423Z,6.55
2018-09-11T05:41:03.368Z,4.08
2018-09-11T05:43:32.295Z,5.30
2018-09-11T05:46:01.557Z,4.12
2018-09-11T05:48:30.693Z,5.65
2018-09-11T05:50:59.675Z,3.02
2018-09-11T05:53:28.643Z,2.05
2018-09-11T05:55:57.597Z,6.42
2018-09-11T05:58:26.644Z,3.77
2018-09-11T06:00:55.559Z,8.35
2018-09-11T06:03:24.620Z,2.95
2018-09-11T06:05:53.582Z,6.22
2018-09-11T06:08:22.568Z,2.27
2018-09-11T06:10:51.512Z,2.50
2018-09-11T06:13:20.533Z,1.45
2018-09-11T06:15:49.586Z,2.35
2018-09-11T06:18:18.648Z,6.45
2018-09-11T06:20:47.635Z,2.12
2018-09-11T06:23:16.650Z,4.83
2018-09-11T06:25:45.670Z,3.77
2018-09-11T06:28:14.779Z,3.45
2018-09-11T06:30:43.765Z,3.33
2018-09-11T06:33:12.693Z,1.77
2018-09-11T06:35:42.075Z,5.45
2018-09-11T06:38:11.020Z,1.45
2018-09-11T06:40:40.019Z,5.08
2018-09-11T06:43:09.055Z,4.60
2018-09-11T06:45:38.006Z,8.58
2018-09-11T06:48:07.005Z,2.67
2018-09-11T06:50:35.991Z,5.87
2018-09-11T06:53:05.012Z,7.30
2018-09-11T06:55:34.027Z,2.90
2018-09-11T06:58:03.030Z,3.45
2018-09-11T07:00:32.149Z,3.75
2018-09-11T07:03:01.102Z,4.30
2018-09-11T07:05:30.183Z,3.02
2018-09-11T07:07:59.152Z,2.15
2018-09-11T07:10:28.121Z,7.25
2018-09-11T07:12:57.072Z,7.67
2018-09-11T07:15:26.516Z,7.05
2018-09-11T07:17:55.534Z,6.12
2018-09-11T07:20:24.773Z,5.10
2018-09-11T07:22:53.817Z,4.67
2018-09-11T07:25:23.318Z,5.05
2018-09-11T07:27:52.320Z,3.10
2018-09-11T07:30:21.348Z,2.72
2018-09-11T07:32:50.299Z,3.58
2018-09-11T07:35:19.236Z,8.00
2018-09-11T07:37:48.257Z,4.90
2018-09-11T07:40:17.304Z,8.78
2018-09-11T07:42:46.293Z,6.10
2018-09-11T07:45:15.275Z,6.47
2018-09-11T07:47:44.288Z,3.70
2018-09-11T07:50:13.337Z,3.87
2018-09-11T07:52:42.374Z,4.58
2018-09-11T07:55:11.284Z,4.78
2018-09-11T07:57:40.308Z,4.17
2018-09-11T08:00:09.248Z,5.40
2018-09-11T08:02:38.244Z,3.52
2018-09-11T08:05:07.909Z,3.58
2018-09-11T08:07:37.720Z,2.50
2018-09-11T08:10:06.740Z,6.08
2018-09-11T08:12:35.709Z,5.25
2018-09-11T08:15:04.831Z,3.42
2018-09-11T08:17:33.893Z,3.35
2018-09-11T08:20:02.954Z,6.05
2018-09-11T08:22:31.921Z,3.65
2018-09-11T08:25:00.918Z,4.97
2018-09-11T08:27:29.917Z,5.72
2018-09-11T08:29:58.984Z,6.50
2018-09-11T08:32:27.966Z,3.83
2018-09-11T08:34:56.942Z,5.70
2018-09-11T08:37:25.906Z,4.85
2018-09-11T08:39:55.023Z,6.72
2018-09-11T08:42:23.963Z,2.75
2018-09-11T08:44:52.967Z,7.12
2018-09-11T08:47:21.949Z,2.92
2018-09-11T08:49:50.922Z,9.75
2018-09-11T08:52:19.869Z,6.15
2018-09-11T08:54:49.223Z,5.90
2018-09-11T08:57:18.182Z,2.02
2018-09-11T08:59:47.130Z,4.12
2018-09-11T09:02:16.095Z,3.90
2018-09-11T09:04:45.119Z,8.63
2018-09-11T09:07:14.067Z,5.05
2018-09-11T09:09:43.418Z,4.53
2018-09-11T09:12:12.401Z,10.13
2018-09-11T09:14:41.380Z,4.15
2018-09-11T09:17:10.354Z,2.72
2018-09-11T09:19:39.341Z,7.00
2018-09-11T09:22:08.271Z,4.87
2018-09-11T09:24:37.281Z,3.15
2018-09-11T09:27:06.239Z,3.60
2018-09-11T09:29:35.400Z,3.67
2018-09-11T09:32:04.360Z,8.03
2018-09-11T09:34:33.373Z,1.98
2018-09-11T09:37:02.446Z,3.65
2018-09-11T09:39:31.288Z,4.28
2018-09-11T09:42:00.323Z,7.62
2018-09-11T09:44:29.265Z,4.37
2018-09-11T09:46:58.236Z,4.83
2018-09-11T09:49:27.190Z,2.47
2018-09-11T09:51:56.141Z,6.75
2018-09-11T09:54:25.166Z,4.25
2018-09-11T09:56:54.171Z,5.55
2018-09-11T09:59:23.139Z,5.00
2018-09-11T10:01:57.373Z,2.37
2018-09-11T10:04:26.371Z,5.12
2018-09-11T10:06:55.306Z,4.60
2018-09-11T10:09:24.281Z,4.72
2018-09-11T10:11:53.299Z,6.00
2018-09-11T10:14:22.211Z,1.92
2018-09-11T10:16:51.162Z,7.65
2018-09-11T10:19:20.335Z,2.83
2018-09-11T10:21:49.382Z,2.20
2018-09-11T10:24:18.306Z,3.45
2018-09-11T10:26:47.315Z,2.72
2018-09-11T10:29:16.446Z,3.60
2018-09-11T10:31:45.580Z,3.40
2018-09-11T10:34:14.691Z,4.62
2018-09-11T10:36:43.646Z,5.50
2018-09-11T10:39:12.615Z,2.33
2018-09-11T10:41:41.490Z,4.12
2018-09-11T10:44:10.555Z,3.08
2018-09-11T10:46:39.528Z,3.00
2018-09-11T10:49:08.669Z,1.62
2018-09-11T10:51:37.907Z,2.30
2018-09-11T10:54:06.863Z,3.67
2018-09-11T10:56:35.970Z,3.65
2018-09-11T10:59:05.117Z,3.37
2018-09-11T11:01:34.089Z,3.72
2018-09-11T11:04:03.050Z,4.62
2018-09-11T11:06:32.040Z,2.25
2018-09-11T11:09:01.346Z,4.85
2018-09-11T11:11:30.356Z,2.92
2018-09-11T11:13:59.517Z,5.35
2018-09-11T11:16:28.530Z,1.95
2018-09-11T11:18:57.472Z,3.75
2018-09-11T11:21:26.397Z,1.72
2018-09-11T11:23:55.358Z,3.83
2018-09-11T11:26:24.431Z,2.55
2018-09-11T11:28:53.427Z,1.75
2018-09-11T11:31:22.450Z,1.67
2018-09-11T11:33:51.395Z,1.42
2018-09-11T11:36:20.547Z,1.82
2018-09-11T11:38:49.512Z,1.85
2018-09-11T11:41:19.182Z,3.90
2018-09-11T11:43:48.191Z,1.67
2018-09-11T11:46:17.209Z,3.42
2018-09-11T11:48:46.305Z,6.67
2018-09-11T11:51:15.711Z,4.90
2018-09-11T11:53:44.740Z,4.92
2018-09-11T11:56:13.700Z,2.77
2018-09-11T11:58:42.704Z,4.87
2018-09-11T12:01:11.668Z,1.67
2018-09-11T12:03:40.664Z,1.20
2018-09-11T12:06:09.620Z,3.55
2018-09-11T12:08:38.654Z,4.20
2018-09-11T12:11:07.588Z,2.90
2018-09-11T12:13:36.540Z,2.20
2018-09-11T12:16:05.545Z,2.60
2018-09-11T12:18:34.549Z,2.80
2018-09-11T12:21:03.500Z,2.40
2018-09-11T12:23:32.686Z,1.87
2018-09-11T12:26:01.704Z,4.25
2018-09-11T12:28:30.650Z,4.10
2018-09-11T12:31:00.445Z,3.35
2018-09-11T12:33:29.408Z,4.45
2018-09-11T12:35:58.369Z,1.90
2018-09-11T12:38:27.397Z,2.58
2018-09-11T12:40:56.333Z,6.53
2018-09-11T12:43:25.312Z,2.12
2018-09-11T12:45:54.325Z,2.25
2018-09-11T12:48:23.656Z,3.37
2018-09-11T12:50:52.298Z,2.95
2018-09-11T12:53:21.372Z,2.12
2018-09-11T12:55:50.367Z,5.83
2018-09-11T12:58:19.484Z,6.75
2018-09-11T13:00:48.529Z,3.30
2018-09-11T13:03:17.521Z,2.52
2018-09-11T13:05:46.503Z,1.42
2018-09-11T13:08:15.515Z,3.02
2018-09-11T13:10:44.534Z,1.85
2018-09-11T13:13:13.864Z,1.60
2018-09-11T13:15:42.816Z,4.03
2018-09-11T13:18:11.862Z,5.45
2018-09-11T13:20:40.831Z,2.02
2018-09-11T13:23:09.814Z,3.52
2018-09-11T13:25:38.797Z,7.15
2018-09-11T13:28:07.741Z,3.00
2018-09-11T13:30:36.734Z,2.77
2018-09-11T13:33:06.278Z,1.67
2018-09-11T13:35:35.208Z,6.72
2018-09-11T13:38:04.174Z,1.55
2018-09-11T13:40:33.220Z,2.77
2018-09-11T13:43:02.162Z,3.33
2018-09-11T13:45:31.135Z,5.60
2018-09-11T13:48:00.077Z,1.40
2018-09-11T13:50:29.057Z,5.65
2018-09-11T13:52:58.057Z,1.55
2018-09-11T13:55:27.128Z,4.47
2018-09-11T13:57:56.241Z,5.12
2018-09-11T14:00:25.178Z,4.03
2018-09-11T14:02:54.332Z,2.92
2018-09-11T14:05:23.236Z,4.72
2018-09-11T14:07:52.213Z,2.85
2018-09-11T14:10:21.571Z,1.85
2018-09-11T14:12:50.524Z,2.55
2018-09-11T14:15:19.539Z,1.70
2018-09-11T14:17:48.837Z,2.27
2018-09-11T14:20:17.840Z,2.80
2018-09-11T14:22:50.097Z,1.20
2018-09-11T14:25:29.018Z,1.32
2018-09-11T14:27:57.959Z,6.22
2018-09-11T14:30:26.929Z,2.52
2018-09-11T14:32:55.928Z,3.20
2018-09-11T14:35:24.922Z,2.58
2018-09-11T14:37:54.071Z,3.60
2018-09-11T14:40:22.979Z,2.00
2018-09-11T14:42:51.964Z,3.90
2018-09-11T14:45:20.962Z,3.70
2018-09-11T14:47:49.916Z,5.65
2018-09-11T14:50:18.849Z,7.45
2018-09-11T14:52:47.856Z,2.10
2018-09-11T14:55:16.886Z,2.52
2018-09-11T14:57:46.069Z,2.50
2018-09-11T15:00:15.033Z,2.90
2018-09-11T15:02:44.008Z,3.85
2018-09-11T15:05:13.093Z,3.33
2018-09-11T15:07:42.014Z,1.32
2018-09-11T15:10:11.379Z,2.10
2018-09-11T15:12:40.322Z,1.10
2018-09-11T15:15:09.301Z,1.67
2018-09-11T15:17:38.257Z,6.85
2018-09-11T15:20:07.785Z,3.55
2018-09-11T15:22:36.867Z,1.75
2018-09-11T15:25:05.768Z,1.70
2018-09-11T15:27:34.811Z,2.95
2018-09-11T15:30:03.997Z,1.42
2018-09-11T15:32:32.854Z,1.42
2018-09-11T15:35:02.156Z,1.75
2018-09-11T15:37:31.200Z,4.75
2018-09-11T15:40:00.188Z,2.45
2018-09-11T15:42:29.250Z,2.60
2018-09-11T15:44:58.533Z,2.58
2018-09-11T15:47:27.481Z,1.80
2018-09-11T15:49:56.424Z,3.08
2018-09-11T15:52:25.418Z,2.30
2018-09-11T15:54:54.421Z,4.62
2018-09-11T15:57:27.170Z,4.87
2018-09-11T15:59:56.404Z,2.50
2018-09-11T16:02:25.349Z,1.32
2018-09-11T16:04:54.330Z,2.17
2018-09-11T16:07:23.382Z,1.72
2018-09-11T16:09:52.390Z,1.40
2018-09-11T16:12:21.543Z,1.62
2018-09-11T16:14:50.800Z,1.82
2018-09-11T16:17:19.755Z,1.25
2018-09-11T16:19:48.798Z,2.05
2018-09-11T16:22:17.785Z,2.92
2018-09-11T16:24:46.783Z,1.50
2018-09-11T16:27:15.730Z,2.67
2018-09-11T16:29:44.814Z,1.37
2018-09-11T16:32:13.797Z,6.08
2018-09-11T16:34:42.761Z,2.45
2018-09-11T16:37:11.728Z,4.85
2018-09-11T16:39:40.786Z,1.47
2018-09-11T16:42:09.759Z,1.30
2018-09-11T16:44:38.738Z,1.98
2018-09-11T16:47:07.856Z,1.32
2018-09-11T16:49:37.171Z,2.02
2018-09-11T16:52:06.391Z,1.60
2018-09-11T16:54:35.374Z,1.20
2018-09-11T16:57:04.394Z,3.10
2018-09-11T16:59:33.419Z,1.80
2018-09-11T17:02:02.470Z,1.30
2018-09-11T17:04:31.452Z,0.95
2018-09-11T17:07:00.447Z,1.52
2018-09-11T17:09:29.469Z,1.55
2018-09-11T17:11:59.457Z,1.55
2018-09-11T17:14:28.521Z,2.20
2018-09-11T17:16:57.554Z,1.35
2018-09-11T17:19:26.558Z,3.87
2018-09-11T17:21:55.970Z,1.47
2018-09-11T17:24:25.060Z,2.55
2018-09-11T17:26:54.072Z,2.72
2018-09-11T17:29:23.061Z,4.22
2018-09-11T17:31:52.075Z,2.15
2018-09-11T17:34:21.092Z,2.83
2018-09-11T17:36:50.460Z,1.75
2018-09-11T17:39:19.398Z,9.30
2018-09-11T17:41:48.418Z,3.62
2018-09-11T17:44:17.448Z,3.58
2018-09-11T17:46:46.440Z,6.35
2018-09-11T17:49:15.539Z,4.95
2018-09-11T17:51:44.496Z,2.98
2018-09-11T17:54:13.518Z,2.90
2018-09-11T17:56:42.556Z,3.90
2018-09-11T17:59:11.578Z,2.05
2018-09-11T18:01:40.601Z,3.37
2018-09-11T18:04:09.622Z,2.77
2018-09-11T18:06:38.621Z,4.42
2018-09-11T18:09:08.372Z,3.83
2018-09-11T18:11:37.407Z,2.40
2018-09-11T18:14:06.497Z,2.33
2018-09-11T18:16:35.512Z,4.95
2018-09-11T18:19:04.555Z,2.10
2018-09-11T18:21:33.555Z,4.17
2018-09-11T18:24:02.659Z,2.70
2018-09-11T18:26:31.755Z,2.50
2018-09-11T18:29:00.728Z,2.47
2018-09-11T18:31:29.774Z,2.37
2018-09-11T18:33:58.772Z,2.37
2018-09-11T18:36:28.563Z,3.08
2018-09-11T18:38:57.576Z,2.10
2018-09-11T18:41:26.602Z,5.17
2018-09-11T18:43:55.758Z,3.52
2018-09-11T18:46:24.722Z,4.00
2018-09-11T18:48:54.061Z,5.30
2018-09-11T18:51:23.116Z,4.80
2018-09-11T18:53:52.082Z,5.78
2018-09-11T18:56:21.334Z,9.40
2018-09-11T18:58:50.317Z,8.88
2018-09-11T19:01:19.311Z,12.05
2018-09-11T19:03:48.343Z,11.18
2018-09-11T19:06:17.426Z,9.28
2018-09-11T19:08:46.487Z,13.48
2018-09-11T19:11:15.808Z,11.68
2018-09-11T19:13:44.841Z,11.55
2018-09-11T19:16:13.861Z,11.35
2018-09-11T19:18:43.101Z,16.23
2018-09-11T19:21:12.125Z,13.48
2018-09-11T19:23:41.137Z,17.10
2018-09-11T19:26:10.216Z,15.03
2018-09-11T19:28:39.311Z,13.48
2018-09-11T19:31:08.338Z,13.95
2018-09-11T19:33:37.278Z,13.55
2018-09-11T19:36:06.359Z,15.20
2018-09-11T19:38:35.749Z,15.60
2018-09-11T19:41:04.749Z,17.55
2018-09-11T19:43:33.761Z,14.43
2018-09-11T19:46:02.687Z,16.82
2018-09-11T19:48:31.707Z,19.35
2018-09-11T19:51:01.626Z,19.62
2018-09-11T19:53:30.901Z,18.62
2018-09-11T19:55:59.971Z,15.23
2018-09-11T19:58:29.048Z,16.15
2018-09-11T20:00:58.061Z,14.65
2018-09-11T20:03:27.071Z,13.55
2018-09-11T20:05:56.052Z,14.85
2018-09-11T20:08:25.061Z,16.17
2018-09-11T20:10:54.200Z,16.42
2018-09-11T20:13:23.225Z,14.80
2018-09-11T20:15:52.274Z,17.80
2018-09-11T20:18:21.304Z,16.75
2018-09-11T20:20:50.315Z,13.65
2018-09-11T20:23:19.316Z,16.12
2018-09-11T20:25:48.373Z,15.85
2018-09-11T20:28:17.348Z,14.07
2018-09-11T20:30:46.356Z,13.60
2018-09-11T20:33:15.442Z,16.15
2018-09-11T20:35:44.438Z,14.90
2018-09-11T20:38:13.434Z,14.05
2018-09-11T20:40:42.493Z,14.38
2018-09-11T20:43:12.783Z,14.90
2018-09-11T20:45:41.774Z,15.38
2018-09-11T20:48:10.749Z,16.07
2018-09-11T20:50:39.750Z,14.40
2018-09-11T20:53:08.779Z,12.05
2018-09-11T20:55:37.757Z,11.60
2018-09-11T20:58:06.746Z,13.88
2018-09-11T21:00:36.091Z,11.35
2018-09-11T21:03:05.078Z,11.22
2018-09-11T21:05:34.044Z,11.80
2018-09-11T21:08:03.037Z,13.03
2018-09-11T21:10:32.014Z,10.23
2018-09-11T21:13:01.079Z,9.15
2018-09-11T21:15:30.057Z,12.88
2018-09-11T21:17:58.993Z,7.85
2018-09-11T21:20:28.014Z,10.98
2018-09-11T21:22:57.025Z,7.85
2018-09-11T21:25:25.987Z,12.13
2018-09-11T21:27:54.886Z,10.25
2018-09-11T21:30:23.909Z,10.30
2018-09-11T21:32:53.017Z,11.03
2018-09-11T21:35:22.032Z,13.13
2018-09-11T21:37:51.309Z,11.18
2018-09-11T21:40:20.364Z,8.70
2018-09-11T21:42:49.360Z,9.58
2018-09-11T21:45:18.340Z,10.93
2018-09-11T21:47:47.377Z,8.70
2018-09-11T21:50:16.483Z,10.48
2018-09-11T21:52:45.455Z,8.40
2018-09-11T21:55:14.462Z,14.20
2018-09-11T21:57:43.534Z,11.90
2018-09-11T22:00:13.382Z,13.65
2018-09-11T22:02:42.395Z,11.55
2018-09-11T22:05:11.622Z,14.58
2018-09-11T22:07:40.604Z,11.43
2018-09-11T22:10:10.873Z,12.20
2018-09-11T22:12:40.135Z,12.35
2018-09-11T22:15:10.403Z,14.70
2018-09-11T22:17:39.620Z,14.60
2018-09-11T22:20:09.005Z,15.30
2018-09-11T22:22:38.055Z,9.23
2018-09-11T22:27:56.243Z,11.43
2018-09-11T22:30:30.159Z,11.05
2018-09-11T22:33:00.028Z,10.60
2018-09-11T22:35:29.004Z,9.38
2018-09-11T22:37:59.067Z,9.93
2018-09-11T22:40:28.085Z,11.85
2018-09-11T22:42:57.102Z,10.72
2018-09-11T22:45:26.085Z,10.90
2018-09-11T22:47:55.216Z,10.70
2018-09-11T22:50:24.210Z,10.55
2018-09-11T22:52:53.612Z,10.25
2018-09-11T22:55:22.599Z,9.38
2018-09-11T22:57:51.680Z,14.07
2018-09-11T23:00:20.693Z,10.43
2018-09-11T23:02:49.715Z,9.13
2018-09-11T23:05:18.734Z,9.50
2018-09-11T23:07:47.693Z,8.23
2018-09-11T23:10:16.667Z,13.98
2018-09-11T23:12:45.733Z,11.35
2018-09-11T23:15:14.716Z,8.63
2018-09-11T23:17:43.668Z,15.85
2018-09-11T23:20:12.696Z,10.00
2018-09-11T23:22:41.673Z,9.98
2018-09-11T23:25:10.618Z,11.53
2018-09-11T23:27:40.216Z,10.53
2018-09-11T23:30:09.150Z,9.58
2018-09-11T23:32:38.071Z,11.80
2018-09-11T23:35:07.058Z,12.95
2018-09-11T23:37:36.156Z,9.48
2018-09-11T23:40:05.383Z,7.65
2018-09-11T23:42:34.390Z,11.00
2018-09-11T23:45:03.312Z,8.50
2018-09-11T23:47:32.294Z,8.95
2018-09-11T23:50:01.283Z,8.75
2018-09-11T23:52:30.274Z,8.40
2018-09-11T23:54:59.298Z,6.80
2018-09-11T23:57:28.226Z,8.93
2018-09-11T23:59:57.493Z,9.40
